Home   Weather   USA   Saginaw   Past weeks
Flag for USA

Past Weather in Saginaw, Michigan, USA — Yesterday and Last 2 Weeks

Currently: 69 °F. Sunny. (Weather station: Saginaw County H.W. Browne Airport, USA). See more current weather

Past Weather in Saginaw — Graph

°F

Saginaw Temperature Yesterday

Maximum temperature yesterday: 73 °F (at 1:35 pm)
Minimum temperature yesterday: 46 °F (at 5:55 am)
Average temperature yesterday: 62 °F

High & Low Weather Summary for the Past Weeks

 TemperatureHumidityPressure
High88 °F (Jun 11, 4:15 pm)97% (Jun 20, 5:35 am)30.15 "Hg (Jun 20, 5:35 am)
Low42 °F (Jun 22, 5:55 am)24% (Jun 17, 6:35 pm)29.40 "Hg (Jun 21, 4:55 am)
Average68 °F69%29.90 "Hg
* Reported Jun 9 5:15 pm — Jun 24 5:35 pm, Saginaw. Weather by CustomWeather, © 2021

Note: Actual official high and low records may vary slightly from our data, if they occured in-between our weather recording intervals... More about our weather records

Saginaw Weather History for the Previous 24 Hours

Scroll right to see more
 ConditionsComfort  
Time TempWeatherWind HumidityBarometerVisibility
5:35 pm
Thu, Jun 24
68 °FBroken clouds.20 mph86%29.97 "Hg10 mi
5:15 pm67 °FDrizzle. Broken clouds.18 mph86%29.99 "Hg10 mi
4:55 pm68 °FScattered clouds.21 mph85%29.98 "Hg10 mi
4:35 pm67 °FLight rain. Broken clouds.8 mph87%29.98 "Hg10 mi
4:15 pm67 °FScattered clouds.14 mph86%29.99 "Hg10 mi
3:35 pm68 °FLight rain. Cloudy.12 mph85%30.01 "Hg10 mi
3:15 pm69 °FRain. Cloudy.7 mph86%30.04 "Hg5 mi
2:55 pm69 °FRain. Cloudy.3 mph82%30.04 "Hg5 mi
2:15 pm74 °FScattered clouds.7 mph61%30.05 "Hg10 mi
1:55 pm75 °FScattered clouds.10 mph54%30.05 "Hg10 mi
1:35 pm75 °FPartly sunny.12 mph52%30.05 "Hg10 mi
1:15 pm76 °FSunny.12 mph54%30.03 "Hg10 mi
12:55 pm76 °FSunny.13 mph52%30.02 "Hg10 mi
12:35 pm76 °FSunny.15 mph51%30.02 "Hg10 mi
12:15 pm76 °FSunny.14 mph51%30.01 "Hg10 mi
11:55 am75 °FSunny.15 mph52%30.01 "Hg10 mi
11:35 am74 °FSunny.16 mph53%30.02 "Hg10 mi
11:15 am73 °FSunny.15 mph53%30.03 "Hg10 mi
10:55 am73 °FSunny.14 mph53%30.03 "Hg10 mi
10:35 am72 °FSunny.14 mph54%30.02 "Hg10 mi
10:15 am72 °FSunny.17 mph54%30.02 "Hg10 mi
9:55 am71 °FSunny.14 mph55%30.03 "Hg10 mi
9:35 am71 °FSunny.18 mph56%30.02 "Hg10 mi
9:15 am70 °FSunny.13 mph57%30.04 "Hg10 mi
8:55 am69 °FSunny.14 mph58%30.05 "Hg10 mi
8:35 am68 °FSunny.14 mph59%30.06 "Hg10 mi
8:15 am68 °FSunny.17 mph59%30.06 "Hg10 mi
7:55 am68 °FSunny.16 mph59%30.06 "Hg10 mi
7:35 am67 °FSunny.14 mph60%30.06 "Hg10 mi
7:15 am67 °FScattered clouds.14 mph60%30.07 "Hg10 mi
6:55 am66 °FScattered clouds.12 mph62%30.06 "Hg10 mi
6:35 am66 °FPartly sunny.13 mph61%30.07 "Hg10 mi
6:15 am65 °FPartly sunny.10 mph63%30.06 "Hg10 mi
5:55 am64 °FSunny.12 mph64%30.06 "Hg10 mi
5:35 am64 °FPassing clouds.10 mph64%30.06 "Hg10 mi
5:15 am66 °FPassing clouds.12 mph61%30.06 "Hg10 mi
4:55 am67 °FOvercast.12 mph59%30.06 "Hg10 mi
4:35 am67 °FOvercast.12 mph59%30.07 "Hg10 mi
4:15 am67 °FOvercast.14 mph59%30.07 "Hg10 mi
3:35 am65 °FClear.9 mph62%30.08 "Hg10 mi
3:15 am66 °FPassing clouds.13 mph61%30.08 "Hg10 mi
2:55 am66 °FPassing clouds.12 mph62%30.08 "Hg10 mi
2:35 am66 °FClear.10 mph63%30.08 "Hg10 mi
2:15 am66 °FPassing clouds.8 mph63%30.08 "Hg10 mi
1:55 am65 °FPassing clouds.8 mph67%30.08 "Hg10 mi
1:35 am65 °FMostly cloudy.7 mph67%30.08 "Hg10 mi
12:55 am65 °FPassing clouds.7 mph68%30.09 "Hg10 mi
12:35 am65 °FPassing clouds.7 mph69%30.09 "Hg10 mi
12:15 am65 °FPassing clouds.8 mph68%30.09 "Hg10 mi
11:55 pm
Wed, Jun 23
65 °FPartly cloudy.8 mph68%30.08 "Hg10 mi
11:35 pm65 °FPassing clouds.7 mph71%30.08 "Hg10 mi
11:15 pm65 °FPassing clouds.7 mph72%30.08 "Hg10 mi
10:55 pm65 °FPassing clouds.7 mph74%30.08 "Hg10 mi
10:35 pm65 °FPassing clouds.8 mph76%30.08 "Hg10 mi
10:15 pm65 °FClear.7 mph76%30.08 "Hg10 mi
9:55 pm66 °FClear.8 mph72%30.07 "Hg10 mi
9:35 pm68 °FPassing clouds.7 mph69%30.07 "Hg10 mi
9:15 pm69 °FPartly sunny.8 mph67%30.06 "Hg10 mi
8:55 pm70 °FPartly sunny.10 mph64%30.06 "Hg10 mi
7:55 pm71 °FSunny.12 mph66%30.06 "Hg10 mi
7:35 pm71 °FScattered clouds.13 mph66%30.06 "Hg10 mi
7:15 pm71 °FScattered clouds.12 mph67%30.06 "Hg10 mi
6:55 pm70 °FBroken clouds.9 mph68%30.06 "Hg10 mi
6:35 pm70 °FMostly cloudy.10 mph67%30.06 "Hg10 mi
6:15 pm70 °FCloudy.13 mph67%30.07 "Hg10 mi
Weather by CustomWeather, © 2021

See weather overview